Time;durP1;ratioP1;P1;durP2;ratioP2;P2;SDS_P1;SDS_P2;PMS_P1;PMS_P2;Temp;Humidity;BMP_temperature;BMP_pressure;BME280_temperature;BME280_humidity;BME280_pressure;Samples;Min_cycle;Max_cycle;Signal;HPM_P1;HPM_P2
2022/11/27 00:01:55;;;;;;;5.97;4.28;;;11.80;66.20;;;10.59;66.35;102601.00;12152194;19;20019;-86
2022/11/27 00:05:58;;;;;;;8.98;4.60;;;11.80;66.10;;;10.58;66.50;102600.09;12158837;19;20018;-86
2022/11/27 00:09:59;;;;;;;10.50;4.78;;;11.80;66.00;;;10.62;66.34;102606.13;12144621;19;20023;-86
2022/11/27 00:14:01;;;;;;;7.00;4.30;;;11.80;66.00;;;10.49;66.24;102591.66;12147234;19;20018;-87
2022/11/27 00:18:03;;;;;;;5.97;5.10;;;11.80;65.90;;;10.38;66.33;102579.72;12150046;19;20391;-87
2022/11/27 00:22:05;;;;;;;6.78;4.97;;;11.80;65.90;;;10.43;66.26;102594.44;12148646;19;20018;-87
2022/11/27 00:26:08;;;;;;;7.22;4.72;;;11.80;66.00;;;10.50;66.35;102602.06;12153067;19;20011;-87
2022/11/27 00:30:11;;;;;;;8.63;5.20;;;11.70;65.90;;;10.51;66.42;102603.78;12154090;19;20684;-87
2022/11/27 00:34:13;;;;;;;11.52;5.13;;;11.70;65.90;;;10.52;66.29;102605.50;12150523;19;20678;-87
2022/11/27 00:38:14;;;;;;;8.70;5.13;;;11.90;66.10;;;10.37;66.38;102579.78;12151382;19;20400;-87
2022/11/27 00:42:16;;;;;;;6.90;4.75;;;11.70;66.60;;;10.46;66.33;102602.19;12145999;19;20010;-87
2022/11/27 00:46:21;;;;;;;5.88;3.97;;;11.60;65.70;;;10.43;66.17;102612.72;12150471;19;20307;-87
2022/11/27 00:50:23;;;;;;;6.90;4.38;;;11.70;65.90;;;9.95;66.06;102530.25;12148002;19;20651;-86
2022/11/27 00:54:25;;;;;;;5.88;4.35;;;11.60;66.00;;;10.41;66.33;102608.38;12146406;19;20022;-86
2022/11/27 00:58:29;;;;;;;6.88;4.07;;;11.60;66.10;;;10.19;66.18;102578.41;12150110;19;20033;-87
2022/11/27 01:02:30;;;;;;;5.03;3.97;;;11.60;66.20;;;10.24;66.23;102578.31;12146387;19;20033;-86
2022/11/27 01:06:33;;;;;;;4.70;3.70;;;11.60;66.20;;;10.31;66.24;102590.34;12149511;19;20764;-87
2022/11/27 01:10:35;;;;;;;7.32;3.88;;;11.50;66.20;;;10.26;66.36;102581.72;12151154;19;20019;-87
2022/11/27 01:14:37;;;;;;;5.57;3.75;;;11.60;66.40;;;10.17;66.49;102574.97;12146945;19;20035;-87
2022/11/27 01:18:41;;;;;;;5.35;4.07;;;11.60;66.40;;;10.41;66.37;102597.91;12150310;19;20050;-87
2022/11/27 01:22:43;;;;;;;4.68;3.53;;;11.60;66.40;;;10.42;66.26;102598.78;12143795;19;20022;-86
2022/11/27 01:26:45;;;;;;;6.05;3.90;;;11.60;66.40;;;10.39;66.29;102586.63;12149009;19;20912;-87
2022/11/27 01:30:48;;;;;;;6.65;4.00;;;11.60;66.30;;;10.26;66.50;102566.94;12148285;19;20393;-87
2022/11/27 01:34:50;;;;;;;5.30;4.05;;;11.60;66.30;;;10.40;66.46;102577.06;12147267;19;20375;-87
2022/11/27 01:38:53;;;;;;;6.97;4.47;;;11.60;66.30;;;10.36;66.32;102567.59;12148263;19;20292;-86
2022/11/27 01:42:55;;;;;;;8.07;4.50;;;11.60;66.30;;;10.27;66.37;102552.13;12142892;19;20016;-87
2022/11/27 01:47:13;;;;;;;5.90;4.40;;;11.60;66.20;;;10.24;66.27;102558.28;12147937;19;20775;-87
2022/11/27 01:51:15;;;;;;;5.97;4.60;;;11.50;66.30;;;10.37;66.42;102570.19;12146158;19;20030;-87
2022/11/27 01:55:36;;;;;;;5.20;4.22;;;11.50;66.90;;;10.34;66.21;102557.19;12142520;19;20015;-87
2022/11/27 01:59:39;;;;;;;5.68;3.78;;;11.60;66.20;;;10.26;66.29;102526.88;12144526;19;20010;-87
2022/11/27 02:03:41;;;;;;;5.30;3.80;;;11.50;66.00;;;10.10;66.06;102509.03;12142149;19;20014;-85
2022/11/27 02:07:47;;;;;;;7.03;4.38;;;11.50;66.00;;;10.28;66.20;102538.19;12142039;19;20052;-85
2022/11/27 02:12:25;;;;;;;6.70;4.05;;;11.50;66.00;;;10.02;66.13;102507.47;12140581;19;20026;-86
2022/11/27 02:17:09;;;;;;;5.82;3.75;;;11.40;66.20;;;10.18;66.25;102534.94;12140595;19;20271;-85
2022/11/27 02:21:31;;;;;;;6.55;4.15;;;11.40;66.30;;;10.03;66.33;102510.06;12140236;19;20024;-85
2022/11/27 02:26:10;;;;;;;8.88;5.22;;;11.40;66.30;;;10.18;66.37;102525.34;12144917;19;20025;-85
2022/11/27 02:30:12;;;;;;;6.10;4.63;;;11.40;66.50;;;10.18;66.33;102521.88;12145966;19;20026;-86
2022/11/27 02:34:34;;;;;;;7.68;4.93;;;11.40;66.40;;;10.15;66.26;102517.59;12143313;19;20019;-86
2022/11/27 02:39:13;;;;;;;7.80;4.70;;;11.40;66.50;;;10.10;66.29;102505.53;12142651;19;20022;-85
2022/11/27 02:43:22;;;;;;;9.25;5.93;;;11.40;66.50;;;10.19;66.28;102521.84;12142500;19;20454;-86
2022/11/27 02:47:27;;;;;;;8.05;5.15;;;11.40;66.50;;;10.09;66.54;102512.50;12140772;19;20026;-86
2022/11/27 02:51:45;;;;;;;7.78;5.28;;;11.40;66.40;;;10.16;66.35;102527.13;12143323;19;20388;-86
2022/11/27 02:55:49;;;;;;;8.65;5.07;;;11.40;66.40;;;10.07;66.36;102519.53;12142329;19;20025;-85
2022/11/27 02:59:54;;;;;;;6.95;5.65;;;11.40;66.30;;;10.00;66.36;102504.06;12143005;19;20038;-86
2022/11/27 03:03:58;;;;;;;9.93;5.50;;;11.40;66.20;;;10.14;66.50;102534.13;12143367;19;20117;-85
2022/11/27 03:08:19;;;;;;;7.57;5.47;;;11.30;66.10;;;10.14;66.40;102535.91;12143953;19;20023;-85
2022/11/27 03:12:20;;;;;;;6.90;5.05;;;11.30;66.10;;;10.15;66.36;102542.81;12141943;19;20784;-85
2022/11/27 03:17:01;;;;;;;7.60;4.95;;;11.30;66.00;;;10.07;66.36;102529.97;12139735;19;20490;-85
2022/11/27 03:21:26;;;;;;;7.90;5.03;;;11.30;66.00;;;9.97;66.17;102512.81;12141548;19;20359;-86
2022/11/27 03:25:28;;;;;;;9.43;5.70;;;11.30;66.00;;;9.81;66.28;102480.16;12143379;19;20866;-86
2022/11/27 03:29:38;;;;;;;8.25;5.63;;;11.30;65.80;;;9.93;66.35;102506.78;12147500;19;20355;-86
2022/11/27 03:33:40;;;;;;;9.98;5.72;;;11.20;65.60;;;9.85;66.12;102500.03;12154714;19;20588;-86
2022/11/27 03:37:42;;;;;;;13.05;5.63;;;11.20;65.80;;;9.91;66.23;102512.94;12147981;19;20010;-85
2022/11/27 03:42:36;;;;;;;8.50;6.03;;;11.20;65.80;;;9.90;66.11;102522.53;12144028;19;20014;-86
2022/11/27 03:46:49;;;;;;;8.13;5.35;;;11.10;65.80;;;9.88;66.33;102533.88;12147708;19;20019;-85
2022/11/27 03:51:42;;;;;;;12.70;6.72;;;11.10;65.80;;;9.81;66.24;102527.97;12150302;19;20010;-85
2022/11/27 03:56:05;;;;;;;8.68;5.78;;;11.00;65.80;;;9.74;66.22;102521.16;12150250;19;20471;-86
2022/11/27 04:00:09;;;;;;;7.63;5.40;;;11.00;65.80;;;9.46;66.38;102474.00;12152390;19;20035;-86
2022/11/27 04:04:11;;;;;;;8.00;5.60;;;11.00;65.80;;;9.75;66.20;102528.97;12153940;19;20722;-85
2022/11/27 04:08:13;;;;;;;10.23;6.53;;;10.90;65.80;;;9.67;66.12;102517.84;12154683;19;20311;-86
2022/11/27 04:12:15;;;;;;;9.38;5.85;;;10.90;65.80;;;9.72;66.09;102525.56;12151795;19;20015;-85
2022/11/27 04:16:18;;;;;;;7.85;5.10;;;10.90;65.70;;;9.61;66.38;102504.06;12149875;19;20391;-86
2022/11/27 04:20:19;;;;;;;7.13;4.93;;;10.80;65.80;;;9.64;66.38;102510.09;12153074;19;20287;-86
2022/11/27 04:24:21;;;;;;;7.70;4.95;;;10.80;65.70;;;9.66;66.34;102521.34;12154868;19;20782;-86
2022/11/27 04:28:23;;;;;;;6.72;4.80;;;10.80;65.60;;;9.62;66.12;102500.59;12154256;19;20022;-85
2022/11/27 04:32:25;;;;;;;8.88;5.43;;;10.80;65.60;;;9.56;66.20;102505.91;12146216;19;20302;-85
2022/11/27 04:36:26;;;;;;;7.47;5.18;;;10.90;65.70;;;9.61;66.11;102520.56;12152302;19;20761;-86
2022/11/27 04:40:28;;;;;;;5.50;4.78;;;10.80;65.60;;;9.55;66.18;102515.50;12144851;19;20023;-86
2022/11/27 04:44:29;;;;;;;10.10;4.85;;;10.80;65.70;;;9.58;66.13;102519.78;12153420;19;20015;-85
2022/11/27 04:48:31;;;;;;;8.38;5.00;;;10.80;66.20;;;9.55;66.21;102520.72;12148653;19;20014;-86
2022/11/27 04:52:33;;;;;;;8.43;5.22;;;10.80;65.50;;;9.53;66.30;102531.19;12143326;19;20022;-86
2022/11/27 04:56:35;;;;;;;10.95;5.00;;;10.80;65.50;;;9.47;66.24;102520.03;12145652;19;20022;-86
2022/11/27 05:00:37;;;;;;;5.10;4.50;;;10.70;65.40;;;9.51;66.27;102526.91;12151511;19;20788;-85
2022/11/27 05:04:39;;;;;;;5.75;4.30;;;10.60;65.40;;;9.48;66.30;102529.59;12150216;19;20793;-86
2022/11/27 05:08:41;;;;;;;6.45;4.82;;;10.80;65.50;;;9.00;66.14;102446.31;12151101;19;20022;-86
2022/11/27 05:12:42;;;;;;;9.38;5.63;;;10.60;65.50;;;9.40;66.30;102510.66;12145177;19;20301;-86
2022/11/27 05:16:51;;;;;;;8.88;5.00;;;10.60;65.40;;;9.40;66.14;102523.69;12136659;19;20018;-85
2022/11/27 05:21:11;;;;;;;7.75;5.35;;;10.60;65.30;;;9.36;66.12;102514.19;12140404;19;20029;-85
2022/11/27 05:25:13;;;;;;;8.38;5.32;;;10.60;65.40;;;9.37;66.26;102510.69;12144380;19;20014;-86
2022/11/27 05:29:16;;;;;;;6.15;4.93;;;10.60;65.40;;;9.23;66.08;102496.19;12148749;19;20537;-85
2022/11/27 05:33:18;;;;;;;7.78;5.93;;;10.60;65.30;;;9.23;66.14;102503.16;12145295;19;20045;-85
2022/11/27 05:37:20;;;;;;;6.82;5.15;;;10.60;65.10;;;9.37;66.10;102534.16;12146153;19;20042;-85
2022/11/27 05:41:22;;;;;;;7.88;6.05;;;10.50;64.90;;;9.27;66.09;102517.84;12145022;19;20391;-85
2022/11/27 05:45:24;;;;;;;9.13;5.38;;;10.50;65.10;;;9.13;66.05;102489.47;12146154;19;20014;-85
2022/11/27 05:49:26;;;;;;;6.28;4.90;;;10.50;65.10;;;9.19;66.23;102497.16;12146962;19;20060;-86
2022/11/27 05:53:28;;;;;;;9.20;5.53;;;10.50;65.20;;;9.25;66.23;102517.03;12146058;19;20082;-85
2022/11/27 05:57:30;;;;;;;9.93;5.57;;;10.50;65.10;;;9.17;66.29;102506.75;12144603;19;20026;-85
2022/11/27 06:01:31;;;;;;;8.80;6.03;;;10.50;65.20;;;9.16;66.30;102505.03;12142317;19;20533;-85
2022/11/27 06:05:37;;;;;;;8.50;5.68;;;10.50;65.10;;;9.26;66.29;102509.19;12146001;19;20019;-85
2022/11/27 06:09:38;;;;;;;;;;;10.50;65.70;;;9.16;66.13;102493.78;12144179;19;20010;-85
2022/11/27 06:13:41;;;;;;;6.88;4.28;;;10.50;65.20;;;9.17;66.13;102485.91;12138949;19;19922;-85
2022/11/27 06:17:43;;;;;;;5.88;4.78;;;10.50;64.80;;;9.04;66.04;102455.78;12139334;19;20019;-86
2022/11/27 06:21:45;;;;;;;7.53;5.32;;;10.50;64.50;;;9.02;66.14;102461.03;12142804;19;20026;-85
2022/11/27 06:25:47;;;;;;;7.72;5.45;;;10.40;64.00;;;9.08;66.14;102489.56;12143613;19;20022;-85
2022/11/27 06:29:49;;;;;;;10.90;5.57;;;10.60;64.00;;;9.07;65.97;102485.25;12144333;19;20292;-85
2022/11/27 06:33:52;;;;;;;7.47;5.40;;;10.30;63.40;;;8.90;65.92;102469.09;12140966;19;20015;-85
2022/11/27 06:37:54;;;;;;;5.93;4.82;;;10.20;63.20;;;8.95;65.86;102476.81;12140491;19;20014;-85
2022/11/27 06:41:56;;;;;;;5.22;4.55;;;10.20;63.10;;;8.82;65.76;102470.97;12141942;19;20046;-85
2022/11/27 06:45:59;;;;;;;6.10;4.55;;;10.10;62.90;;;8.86;65.97;102496.09;12143554;19;20014;-85
2022/11/27 06:50:01;;;;;;;5.47;4.18;;;10.10;63.30;;;8.76;65.94;102482.38;12142982;19;20049;-85
2022/11/27 06:54:03;;;;;;;6.88;4.75;;;10.00;63.40;;;8.72;65.77;102474.66;12143708;19;20018;-85
2022/11/27 06:58:05;;;;;;;9.70;4.88;;;9.90;63.30;;;8.73;65.83;102485.06;12143255;19;20765;-86
2022/11/27 07:02:13;;;;;;;5.70;4.47;;;9.90;63.00;;;8.50;65.75;102469.84;12143947;19;20411;-86
2022/11/27 07:06:21;;;;;;;5.72;4.82;;;9.90;62.90;;;8.58;65.70;102483.56;12143839;19;20411;-86
2022/11/27 07:10:23;;;;;;;8.80;4.65;;;9.80;63.00;;;8.61;65.76;102506.09;12152413;19;20014;-86
2022/11/27 07:14:25;;;;;;;7.10;5.00;;;9.80;63.00;;;8.31;65.85;102466.69;12155104;19;20034;-86
2022/11/27 07:18:34;;;;;;;5.10;4.45;;;9.70;62.80;;;8.46;65.75;102493.38;12154750;19;20026;-87
2022/11/27 07:22:35;;;;;;;5.45;4.63;;;9.90;63.00;;;8.38;65.86;102494.31;12150166;19;20033;-86
2022/11/27 07:26:37;;;;;;;5.82;4.18;;;9.70;62.90;;;8.44;65.66;102496.00;12153376;19;20014;-85
2022/11/27 07:30:39;;;;;;;5.43;4.55;;;9.60;62.80;;;8.39;65.73;102480.44;12150805;19;20050;-86
2022/11/27 07:34:40;;;;;;;4.85;3.63;;;9.60;62.90;;;8.34;65.71;102482.25;12153228;19;20030;-85
2022/11/27 07:38:44;;;;;;;5.32;4.28;;;9.60;62.80;;;8.23;65.72;102465.09;12149739;19;20014;-85
2022/11/27 07:42:45;;;;;;;4.25;3.75;;;9.50;62.70;;;8.27;65.83;102483.25;12149094;19;20020;-85
2022/11/27 07:46:47;;;;;;;4.95;3.97;;;9.50;62.70;;;8.20;65.82;102468.63;12154207;19;20399;-85
2022/11/27 07:50:49;;;;;;;5.70;4.38;;;9.40;62.70;;;7.95;65.66;102435.22;12153614;19;20078;-86
2022/11/27 07:54:51;;;;;;;7.40;5.20;;;9.40;62.70;;;8.20;65.73;102477.28;12150451;19;20572;-84
2022/11/27 07:58:53;;;;;;;6.70;5.32;;;9.40;62.90;;;8.08;65.70;102456.69;12151890;19;20112;-85
2022/11/27 08:02:55;;;;;;;8.43;5.95;;;9.40;62.80;;;8.11;65.59;102466.19;12143198;19;20023;-86
2022/11/27 08:06:57;;;;;;;7.35;5.47;;;9.50;63.00;;;8.02;65.68;102454.19;12152719;19;20011;-87
2022/11/27 08:10:58;;;;;;;12.27;7.68;;;9.20;62.70;;;7.78;65.59;102413.84;12149556;19;20291;-85
2022/11/27 08:15:03;;;;;;;7.78;5.88;;;9.20;63.00;;;8.00;65.78;102452.50;12150184;19;20338;-85
2022/11/27 08:19:05;;;;;;;6.07;5.20;;;9.20;63.50;;;7.92;65.87;102439.63;12149978;19;20039;-85
2022/11/27 08:23:07;;;;;;;7.40;5.72;;;9.10;63.70;;;7.67;65.87;102398.41;12147283;19;20559;-86
2022/11/27 08:27:09;;;;;;;8.88;5.75;;;9.10;63.90;;;7.95;65.75;102456.03;12139246;19;20030;-86
2022/11/27 08:31:13;;;;;;;10.00;6.68;;;9.20;64.10;;;7.91;65.81;102433.56;12149784;19;20019;-86
2022/11/27 08:35:15;;;;;;;11.35;6.70;;;9.20;64.20;;;7.96;65.70;102439.50;12145831;19;20035;-86
2022/11/27 08:39:17;;;;;;;11.57;6.82;;;9.10;64.10;;;8.00;65.81;102447.28;12151343;19;20077;-85
2022/11/27 08:43:19;;;;;;;9.32;6.45;;;9.20;64.20;;;7.95;65.81;102445.63;12147166;19;20028;-86
2022/11/27 08:47:21;;;;;;;8.00;5.95;;;9.20;64.30;;;7.91;65.77;102446.56;12150355;19;20022;-86
2022/11/27 08:51:23;;;;;;;11.82;7.55;;;9.20;64.40;;;7.96;65.97;102452.53;12149390;19;20050;-86
2022/11/27 08:55:24;;;;;;;8.85;5.88;;;9.20;64.60;;;7.95;65.89;102455.16;12149728;19;20019;-89
2022/11/27 08:59:26;;;;;;;11.25;6.97;;;9.20;64.70;;;7.62;65.89;102405.41;12147822;19;20022;-86
2022/11/27 09:03:28;;;;;;;9.02;6.25;;;9.20;64.70;;;7.98;66.00;102468.13;12148996;19;20015;-86
2022/11/27 09:07:30;;;;;;;8.43;5.97;;;9.20;64.80;;;7.97;66.02;102464.66;12146803;19;20039;-86
2022/11/27 09:11:33;;;;;;;8.20;6.15;;;9.20;64.80;;;8.02;65.92;102481.94;12149919;19;20378;-87
2022/11/27 09:15:35;;;;;;;10.65;5.50;;;9.20;64.80;;;8.03;65.96;102462.84;12149402;19;20029;-85
2022/11/27 09:19:36;;;;;;;8.18;6.07;;;9.30;65.00;;;7.98;65.96;102450.75;12147244;19;20035;-85
2022/11/27 09:23:38;;;;;;;7.95;5.80;;;9.30;65.00;;;8.07;65.96;102454.94;12148016;19;20117;-85
2022/11/27 09:27:40;;;;;;;8.10;5.80;;;9.50;65.10;;;8.14;66.09;102459.19;12149110;19;20382;-87
2022/11/27 09:31:41;;;;;;;7.28;4.90;;;9.30;64.80;;;8.09;66.05;102444.53;12147097;19;20466;-86
2022/11/27 09:35:44;;;;;;;6.53;4.43;;;9.40;64.90;;;8.22;66.09;102459.03;12143904;19;20582;-85
2022/11/27 09:39:45;;;;;;;7.43;5.55;;;9.40;65.00;;;8.05;66.12;102422.91;12144821;19;20014;-87
2022/11/27 09:43:56;;;;;;;6.95;5.03;;;9.50;64.70;;;8.23;66.07;102429.53;12145849;19;20030;-88
2022/11/27 09:48:04;;;;;;;8.45;5.22;;;9.50;64.70;;;8.15;66.13;102406.22;12144362;19;20019;-85
2022/11/27 09:52:17;;;;;;;7.50;5.32;;;9.60;64.90;;;8.29;66.01;102408.63;12141761;19;20377;-85
2022/11/27 09:56:19;;;;;;;6.75;5.75;;;9.60;64.90;;;8.39;66.22;102404.97;12145595;19;21158;-86
2022/11/27 10:00:21;;;;;;;8.18;6.35;;;9.70;65.00;;;8.54;66.19;102408.19;12144878;19;20022;-86
2022/11/27 10:04:23;;;;;;;8.20;5.65;;;9.80;64.80;;;8.50;66.29;102389.13;12143741;19;20395;-86
2022/11/27 10:08:28;;;;;;;6.70;5.13;;;9.90;64.90;;;8.66;66.28;102405.31;12145037;19;20018;-85
2022/11/27 10:13:02;;;;;;;7.93;5.50;;;9.90;64.70;;;8.64;66.35;102404.47;12142819;19;20048;-86
2022/11/27 10:17:31;;;;;;;6.90;5.60;;;10.00;64.90;;;8.72;66.21;102393.91;12142513;19;20018;-85
2022/11/27 10:22:02;;;;;;;7.63;6.13;;;10.10;64.30;;;8.77;66.36;102384.25;12139469;19;20014;-87
2022/11/27 10:26:18;;;;;;;8.32;5.30;;;10.10;63.80;;;8.80;66.55;102377.25;12146561;19;20002;-87
2022/11/27 10:30:20;;;;;;;6.55;4.55;;;10.30;64.40;;;8.84;66.44;102360.66;12142064;19;20026;-86
2022/11/27 10:34:42;;;;;;;5.88;4.63;;;10.30;64.60;;;8.99;66.25;102379.44;12148557;19;20014;-86
2022/11/27 10:38:45;;;;;;;5.47;4.28;;;10.40;63.80;;;9.07;66.41;102373.19;12150520;19;20018;-85
2022/11/27 10:42:53;;;;;;;4.43;4.03;;;10.40;64.60;;;9.14;66.28;102379.09;12147687;19;20014;-87
2022/11/27 10:47:06;;;;;;;7.25;4.55;;;10.50;63.70;;;9.00;66.33;102360.34;12151854;19;21068;-86
2022/11/27 10:51:23;;;;;;;7.43;4.22;;;10.50;63.40;;;8.89;66.24;102320.63;12146354;19;20318;-85
2022/11/27 10:55:56;;;;;;;7.05;4.47;;;10.50;63.20;;;9.14;66.13;102363.47;12150473;19;20552;-86
2022/11/27 11:00:14;;;;;;;4.60;3.92;;;10.60;62.70;;;9.25;66.08;102371.91;12152070;19;20019;-85
2022/11/27 11:04:25;;;;;;;5.30;4.47;;;10.60;62.80;;;9.30;66.16;102359.63;12152879;19;20046;-86
2022/11/27 11:08:30;;;;;;;6.38;4.07;;;10.60;62.30;;;9.28;66.40;102345.75;12148253;19;20347;-85
2022/11/27 11:12:32;;;;;;;10.95;4.63;;;10.70;62.90;;;9.33;66.12;102360.44;12144580;19;20036;-85
2022/11/27 11:16:42;;;;;;;6.45;4.72;;;10.70;62.80;;;9.30;66.22;102345.72;12147952;19;20133;-85
2022/11/27 11:20:51;;;;;;;7.80;4.78;;;10.80;62.60;;;9.45;66.06;102367.97;12148928;19;20030;-86
2022/11/27 11:24:53;;;;;;;6.38;4.35;;;10.70;62.50;;;9.42;66.03;102349.78;12148155;19;20037;-85
2022/11/27 11:29:00;;;;;;;6.15;4.10;;;10.80;62.50;;;9.26;65.97;102308.47;12148081;19;20787;-85
2022/11/27 11:33:03;;;;;;;4.20;3.80;;;10.80;62.60;;;9.47;66.12;102332.28;12136482;19;20019;-87
2022/11/27 11:37:15;;;;;;;5.70;4.43;;;10.80;62.50;;;9.55;65.99;102369.44;12142910;19;20306;-86
2022/11/27 11:41:17;;;;;;;5.20;4.57;;;10.80;61.80;;;9.50;65.95;102351.34;12145022;19;20022;-87
2022/11/27 11:45:23;;;;;;;4.70;4.05;;;10.90;61.80;;;9.58;66.12;102353.72;12146769;19;20046;-86
2022/11/27 11:49:28;;;;;;;6.88;4.07;;;10.90;62.20;;;9.49;65.96;102333.09;12148873;19;20057;-86
2022/11/27 11:53:37;;;;;;;5.93;4.30;;;10.90;62.10;;;9.60;66.03;102351.09;12156259;19;20010;-85
2022/11/27 11:57:41;;;;;;;7.15;4.70;;;10.90;62.20;;;9.64;65.94;102344.88;12147453;19;21130;-86
2022/11/27 12:01:57;;;;;;;5.18;4.68;;;11.00;62.00;;;9.64;65.94;102343.16;12151528;19;20019;-86
2022/11/27 12:06:29;;;;;;;5.53;4.55;;;10.90;61.80;;;9.66;65.63;102336.13;12154801;19;20052;-87
2022/11/27 12:11:13;;;;;;;4.45;4.05;;;11.00;61.80;;;9.68;65.83;102339.56;12153920;19;20366;-85
2022/11/27 12:15:43;;;;;;;4.57;4.03;;;11.00;61.90;;;9.60;65.80;102306.75;12150617;19;20888;-85
2022/11/27 12:20:03;;;;;;;4.63;3.88;;;11.10;62.20;;;9.77;65.76;102327.19;12153038;19;20122;-85
2022/11/27 12:24:43;;;;;;;6.15;4.13;;;11.00;61.80;;;9.77;65.72;102327.19;12143093;19;20018;-85
2022/11/27 12:29:36;;;;;;;5.00;4.45;;;11.10;61.90;;;9.79;65.83;102318.41;12147503;19;20018;-85
2022/11/27 12:34:01;;;;;;;6.68;4.32;;;11.10;61.90;;;9.77;65.97;102301.94;12153906;19;20019;-85
2022/11/27 12:38:42;;;;;;;6.15;4.28;;;11.20;61.70;;;9.87;65.58;102292.13;12156248;19;20079;-85
2022/11/27 12:43:07;;;;;;;6.35;3.70;;;11.10;61.30;;;9.87;65.58;102276.47;12146004;19;20640;-85
2022/11/27 12:47:30;;;;;;;8.73;4.22;;;11.20;61.70;;;9.73;65.64;102253.38;12158466;19;20022;-85
2022/11/27 12:51:42;;;;;;;4.75;4.13;;;11.20;61.80;;;9.86;65.65;102261.72;12152838;19;20138;-85
2022/11/27 12:56:23;;;;;;;4.00;3.60;;;11.20;61.80;;;9.91;65.69;102257.22;12154177;19;20467;-85
2022/11/27 13:00:29;;;;;;;5.55;3.40;;;11.20;61.80;;;9.81;65.68;102221.88;12150978;19;20298;-85
2022/11/27 13:04:54;;;;;;;7.53;5.57;;;11.30;61.80;;;9.95;65.51;102235.38;12156786;19;20436;-86
2022/11/27 13:09:07;;;;;;;3.92;3.53;;;11.30;61.80;;;9.91;65.44;102226.78;12159962;19;20021;-85
2022/11/27 13:13:33;;;;;;;6.25;3.55;;;11.30;61.60;;;10.03;65.58;102243.00;12155243;19;20011;-85
2022/11/27 13:17:41;;;;;;;6.65;3.67;;;11.30;61.60;;;10.02;65.57;102236.91;12157183;19;20026;-88
2022/11/27 13:21:45;;;;;;;5.10;3.58;;;11.40;61.80;;;10.03;65.80;102241.22;12160074;19;20115;-85
2022/11/27 13:25:53;;;;;;;4.40;3.67;;;11.40;61.90;;;10.03;65.40;102222.09;12159547;19;20132;-85
2022/11/27 13:30:06;;;;;;;7.03;4.15;;;11.40;61.60;;;10.01;65.63;102218.69;12158766;19;20031;-86
2022/11/27 13:34:20;;;;;;;4.85;3.70;;;11.40;61.30;;;10.08;65.35;102208.03;12158039;19;20015;-86
2022/11/27 13:38:25;;;;;;;8.23;3.33;;;11.40;61.20;;;10.07;65.44;102195.88;12158472;19;20018;-86
2022/11/27 13:42:27;;;;;;;3.47;2.85;;;11.40;61.20;;;10.04;65.38;102179.44;12154930;19;20046;-85
2022/11/27 13:46:45;;;;;;;3.78;2.78;;;11.50;61.50;;;10.15;65.21;102200.84;12155462;19;20030;-85
2022/11/27 13:50:53;;;;;;;7.68;3.30;;;11.50;61.20;;;10.10;65.50;102180.13;12151736;19;20378;-85
2022/11/27 13:55:01;;;;;;;4.68;2.85;;;11.50;60.90;;;9.90;65.31;102152.00;12152940;19;20022;-85
2022/11/27 13:59:24;;;;;;;3.72;2.92;;;11.40;60.90;;;10.11;65.36;102191.41;12151348;19;20022;-85
2022/11/27 14:03:29;;;;;;;2.75;2.40;;;11.50;60.80;;;10.06;65.15;102170.66;12151228;19;20396;-85
2022/11/27 14:07:40;;;;;;;3.53;2.72;;;11.40;60.70;;;9.98;65.11;102167.44;12157363;19;20039;-86
2022/11/27 14:11:46;;;;;;;2.50;2.03;;;11.40;60.60;;;9.96;65.05;102170.09;12155818;19;20015;-85
2022/11/27 14:16:00;;;;;;;3.85;2.38;;;11.30;60.50;;;9.90;64.82;102170.25;12151911;19;20022;-86
2022/11/27 14:20:31;;;;;;;4.53;2.50;;;11.30;60.50;;;9.88;65.05;102166.84;12151456;19;20041;-86
2022/11/27 14:24:42;;;;;;;2.58;2.05;;;11.20;60.40;;;9.82;65.07;102158.34;12149743;19;20045;-85
2022/11/27 14:28:49;;;;;;;2.47;2.22;;;11.20;60.50;;;9.80;64.97;102155.75;12153922;19;20023;-86
2022/11/27 14:32:51;;;;;;;2.90;1.73;;;11.10;60.50;;;9.64;64.94;102144.94;12152677;19;20457;-85
2022/11/27 14:36:53;;;;;;;3.80;2.50;;;11.00;60.60;;;9.55;65.02;102142.56;12145675;19;20902;-85
2022/11/27 14:41:25;;;;;;;4.63;2.03;;;11.00;60.80;;;9.51;64.97;102151.41;12150270;19;20256;-85
2022/11/27 14:45:27;;;;;;;2.67;2.00;;;10.90;60.40;;;9.53;65.02;102152.19;12148381;19;20032;-86
2022/11/27 14:49:30;;;;;;;2.72;2.22;;;10.80;60.50;;;9.38;65.03;102140.44;12141898;19;20018;-85
2022/11/27 14:53:32;;;;;;;2.70;2.00;;;10.70;60.60;;;9.40;64.91;102151.69;12146881;19;20022;-85
2022/11/27 14:57:34;;;;;;;3.58;2.00;;;10.70;60.60;;;9.29;64.97;102146.75;12150740;19;20014;-85
2022/11/27 15:01:36;;;;;;;2.78;1.80;;;10.80;60.50;;;9.20;64.73;102148.75;12152135;19;20031;-85
2022/11/27 15:05:38;;;;;;;3.85;1.77;;;10.60;60.40;;;9.14;64.53;102141.09;12152564;19;20039;-85
2022/11/27 15:09:49;;;;;;;3.45;2.47;;;10.50;60.20;;;9.12;64.77;102145.50;12152255;19;20399;-85
2022/11/27 15:13:59;;;;;;;2.22;2.03;;;10.40;60.00;;;9.03;64.61;102151.81;12135358;19;20887;-85
2022/11/27 15:18:05;;;;;;;3.90;2.03;;;10.30;60.00;;;8.77;64.68;102116.00;12138572;19;20018;-85
2022/11/27 15:22:17;;;;;;;2.17;1.83;;;10.20;60.00;;;8.83;64.59;102134.06;12147745;19;20060;-85
2022/11/27 15:26:38;;;;;;;2.92;1.90;;;10.20;60.20;;;8.68;64.57;102127.50;12155866;19;20376;-85
2022/11/27 15:30:44;;;;;;;3.90;1.90;;;10.00;60.10;;;8.66;64.65;102126.66;12163307;19;20764;-85
2022/11/27 15:34:47;;;;;;;1.88;1.75;;;9.90;60.60;;;8.68;64.67;102140.53;12163171;19;20877;-85
2022/11/27 15:38:51;;;;;;;2.95;1.75;;;9.90;60.00;;;8.57;64.60;102124.31;12168439;19;20857;-85
2022/11/27 15:42:53;;;;;;;5.75;2.40;;;9.80;60.20;;;8.46;64.73;102115.91;12157854;19;20022;-85
2022/11/27 15:46:59;;;;;;;2.55;2.25;;;9.70;60.20;;;8.36;64.41;102113.47;12164028;19;20053;-85
2022/11/27 15:51:00;;;;;;;;;;;9.70;60.40;;;8.33;64.44;102102.28;12160230;19;20018;-85
2022/11/27 15:55:02;;;;;;;1.50;1.40;;;9.60;60.70;;;8.28;64.81;102094.56;12162539;19;20366;-85
2022/11/27 15:59:03;;;;;;;2.30;1.75;;;9.70;60.80;;;8.29;64.47;102104.13;12161979;19;20781;-85
2022/11/27 16:03:05;;;;;;;2.63;1.88;;;9.50;60.60;;;8.22;64.46;102091.28;12155777;19;20015;-85
2022/11/27 16:07:07;;;;;;;2.33;2.13;;;9.40;60.70;;;8.15;64.68;102091.41;12159952;19;20791;-85
2022/11/27 16:11:18;;;;;;;2.67;2.30;;;9.40;60.80;;;8.15;64.71;102099.19;12159692;19;20765;-85
2022/11/27 16:15:19;;;;;;;2.78;2.05;;;9.30;60.80;;;8.10;64.77;102089.78;12163870;19;20782;-85
2022/11/27 16:19:22;;;;;;;3.50;2.45;;;9.30;60.90;;;8.01;64.57;102083.06;12159912;19;20026;-85
2022/11/27 16:23:23;;;;;;;3.38;2.08;;;9.20;61.00;;;7.99;64.53;102077.03;12150815;19;20028;-85
2022/11/27 16:27:25;;;;;;;3.58;2.28;;;9.20;60.90;;;7.96;64.48;102088.34;12151865;19;20026;-85
2022/11/27 16:31:27;;;;;;;2.55;2.25;;;9.20;61.00;;;7.94;64.63;102092.75;12155783;19;20011;-86
2022/11/27 16:35:29;;;;;;;3.65;2.05;;;9.10;61.20;;;7.93;64.66;102072.81;12153799;19;20019;-85
2022/11/27 16:39:30;;;;;;;3.67;2.70;;;9.10;61.10;;;7.83;64.71;102054.84;12152780;19;20081;-85
2022/11/27 16:43:41;;;;;;;2.78;2.10;;;9.10;61.10;;;7.83;64.82;102065.25;12152113;19;20875;-85
2022/11/27 16:47:43;;;;;;;3.17;2.20;;;9.00;60.90;;;7.75;64.59;102065.44;12153970;19;20371;-85
2022/11/27 16:51:45;;;;;;;3.38;2.63;;;9.00;61.10;;;7.79;64.73;102067.09;12149046;19;20014;-85
2022/11/27 16:55:48;;;;;;;4.18;3.33;;;9.00;61.20;;;7.66;64.72;102047.44;12152084;19;20022;-85
2022/11/27 16:59:50;;;;;;;5.13;3.42;;;9.00;61.10;;;7.76;64.71;102065.41;12150161;19;20366;-85
2022/11/27 17:03:52;;;;;;;4.82;3.20;;;8.90;60.90;;;7.61;64.61;102049.28;12133334;19;20485;-85
2022/11/27 17:07:54;;;;;;;3.95;2.70;;;8.90;61.20;;;7.66;64.58;102058.69;12149195;19;20022;-85
2022/11/27 17:11:55;;;;;;;4.55;2.55;;;8.80;61.30;;;7.53;64.64;102036.44;12146318;19;20580;-85